COOK1: Arkansas River Nr Coolidge, KS

                                SHEF ID:       COOK1     ARKANSAS R NR COOLIDGE, KS
STATION TYPE:
Regulating: Stage = 8.00, Flow = 2041

PRECIP STAGE STAGE(2) RIV-FLOW WTR-TEMP CONDUCT BAT-LOAD
in ft ft cfs F umho/cm volt
Ccp-Rev Ccp-Rev Ccp-Rev Ccp-Rev Ccp-Rev Ccp-Rev Ccp-Rev
(America/Chicago)
04/24 00:00 0.00 1.66 ---- 11 56.14 7355 12.47
04/24 01:00 0.00 1.65 ---- 10 55.26 7443 12.44
04/24 02:00 0.00 1.64 ---- 10 53.98 7511 12.40
04/24 03:00 0.00 1.64 ---- 10 52.52 7542 12.36
04/24 04:00 0.00 1.64 ---- 10 51.31 7560 12.31
04/24 05:00 0.00 1.64 ---- 10 50.16 7567 12.26
04/24 06:00 0.00 1.63 ---- 10 49.23 7574 12.21
04/24 07:00 0.00 1.63 ---- 10 48.51 7578 12.17
04/24 08:00 0.00 1.63 ---- 10 48.09 7578 12.13
04/24 09:00 0.00 1.64 ---- 10 49.46 7567 12.58
04/24 10:00 0.00 1.64 ---- 10 53.04 7540 13.29
04/24 11:00 0.00 1.72 ---- 13 57.96 7690 13.25
04/24 12:00 0.00 1.74 ---- 13 63.36 7673 13.64
04/24 13:00 0.00 1.75 ---- 14 68.13 7664 13.92
04/24 14:00 0.00 1.76 ---- 14 71.64 7661 13.65
04/24 15:00 0.00 1.75 ---- 14 73.94 7594 13.57
04/24 16:00 0.00 1.74 ---- 13 74.86 7391 13.46
04/24 17:00 0.00 1.73 ---- 13 74.64 7227 13.49
04/24 18:00 0.00 1.73 ---- 13 73.08 7141 13.49
04/24 19:00 0.00 1.74 ---- 13 69.58 7101 13.76
04/24 20:00 0.00 1.73 ---- 13 65.37 7137 13.29
04/24 21:00 0.00 1.73 ---- 13 62.04 7200 12.66
04/24 22:00 0.00 1.73 ---- 13 59.16 7241 12.61
04/24 23:00 0.00 1.73 ---- 13 57.22 7274 12.57
Data processed at Sat 25Apr2026 04:30 GMT

NOTICE: If you are parsing this page

Please convert to using our Data API. Starting early 2026 we will be migrating to: https://water.usace.army.mil with modern pages rendered in JavaScript. When this migration completes you will no longer be able to scrape this page! CWMSDataAPI (CDA)

Timeseries IDs (TSIDs)

TSIDs used from left to right in the data table
COOL.Precip-Inc.Total.1Hour.1Hour.Ccp-Rev
COOL.Stage.Inst.1Hour.0.Ccp-Rev
COOL.Stage-Alt.Inst.1Hour.0.Ccp-Rev
COOL.Flow.Inst.1Hour.0.Ccp-Rev
COOL.Temp-Water.Inst.1Hour.0.Ccp-Rev
COOL.Cond.Inst.1Hour.0.Ccp-Rev
COOL.Volt-Battery Load.Inst.1Hour.0.Ccp-Rev

                            

All information presented herein is the property of the government of the United States of America and may be revised or deleted at any time without prior notice. Dissemination of this information without the expressed written consent of the Public Affairs Office, Tulsa District U.S. Army Corps of Engineers is strictly prohibited. These data are gathered electronically and, as presented, have NOT undergone any form of quality control. These data are NOT guaranteed to be valid or correct.